Terminal Aerodrome Forecast
Issued by NWS Charleston, WV

Current Version | Previous Version | Graphics & Text | Print | Product List | Glossary On
Versions: 1 2 3 4 5 6 7 8 9 10 11 12 13 14 15 16 17 18 19 20 21
000
FTUS41 KRLX 290535
TAFPKB
TAF
KPKB 290535Z 2906/3006 30005KT P6SM BKN023
     FM291000 VRB03KT 4SM BR OVC010
     FM291500 28005KT 6SM HZ BKN025
     FM291800 31006KT P6SM BKN045
     FM292200 33007KT P6SM SCT050=

USA.gov is the U.S. government's official web portal to all federal, state and local government web resources and services.